sensor_id;sensor_type;location;lat;lon;timestamp;pressure;altitude;pressure_sealevel;temperature;humidity
6829;BME280;17930;48.592;8.868;2023-12-04T00:01:51;96936.75;;;-8.55;100.00
6829;BME280;17930;48.592;8.868;2023-12-04T00:04:18;96926.75;;;-8.31;100.00
6829;BME280;17930;48.592;8.868;2023-12-04T00:06:45;96918.50;;;-7.92;100.00
6829;BME280;17930;48.592;8.868;2023-12-04T00:09:13;96913.56;;;-8.09;100.00
6829;BME280;17930;48.592;8.868;2023-12-04T00:11:39;96908.84;;;-7.96;100.00
6829;BME280;17930;48.592;8.868;2023-12-04T00:14:06;96899.88;;;-7.75;100.00
6829;BME280;17930;48.592;8.868;2023-12-04T00:16:33;96903.16;;;-7.90;100.00
6829;BME280;17930;48.592;8.868;2023-12-04T00:19:00;96899.53;;;-7.88;100.00
6829;BME280;17930;48.592;8.868;2023-12-04T00:21:27;96904.72;;;-7.97;100.00
6829;BME280;17930;48.592;8.868;2023-12-04T00:23:54;96900.91;;;-8.01;100.00
6829;BME280;17930;48.592;8.868;2023-12-04T00:26:22;96897.56;;;-8.25;100.00
6829;BME280;17930;48.592;8.868;2023-12-04T00:28:48;96901.28;;;-8.45;100.00
6829;BME280;17930;48.592;8.868;2023-12-04T00:31:15;96901.44;;;-8.47;100.00
6829;BME280;17930;48.592;8.868;2023-12-04T00:33:42;96900.31;;;-8.52;100.00
6829;BME280;17930;48.592;8.868;2023-12-04T00:36:10;96890.44;;;-8.63;100.00
6829;BME280;17930;48.592;8.868;2023-12-04T00:38:36;96882.19;;;-8.73;100.00
6829;BME280;17930;48.592;8.868;2023-12-04T00:41:04;96885.47;;;-8.80;100.00
6829;BME280;17930;48.592;8.868;2023-12-04T00:43:32;96878.66;;;-8.88;100.00
6829;BME280;17930;48.592;8.868;2023-12-04T00:45:59;96877.97;;;-8.98;100.00
6829;BME280;17930;48.592;8.868;2023-12-04T00:48:26;96875.41;;;-9.06;100.00
6829;BME280;17930;48.592;8.868;2023-12-04T00:50:54;96877.69;;;-9.20;100.00
6829;BME280;17930;48.592;8.868;2023-12-04T00:53:21;96873.22;;;-9.01;100.00
6829;BME280;17930;48.592;8.868;2023-12-04T00:55:48;96870.66;;;-9.09;100.00
6829;BME280;17930;48.592;8.868;2023-12-04T00:58:15;96880.66;;;-9.24;100.00
6829;BME280;17930;48.592;8.868;2023-12-04T01:00:43;96870.16;;;-9.37;100.00
6829;BME280;17930;48.592;8.868;2023-12-04T01:03:09;96868.84;;;-9.41;100.00
6829;BME280;17930;48.592;8.868;2023-12-04T01:05:36;96871.16;;;-9.30;100.00
6829;BME280;17930;48.592;8.868;2023-12-04T01:08:03;96875.00;;;-9.18;100.00
6829;BME280;17930;48.592;8.868;2023-12-04T01:10:30;96874.41;;;-9.13;100.00
6829;BME280;17930;48.592;8.868;2023-12-04T01:12:56;96867.22;;;-9.00;100.00
6829;BME280;17930;48.592;8.868;2023-12-04T01:15:23;96870.72;;;-9.01;100.00
6829;BME280;17930;48.592;8.868;2023-12-04T01:17:51;96863.13;;;-9.01;100.00
6829;BME280;17930;48.592;8.868;2023-12-04T01:20:18;96862.53;;;-8.95;100.00
6829;BME280;17930;48.592;8.868;2023-12-04T01:22:44;96857.47;;;-8.95;100.00
6829;BME280;17930;48.592;8.868;2023-12-04T01:25:11;96847.69;;;-8.98;100.00
6829;BME280;17930;48.592;8.868;2023-12-04T01:27:38;96849.97;;;-8.87;100.00
6829;BME280;17930;48.592;8.868;2023-12-04T01:30:06;96845.91;;;-8.80;100.00
6829;BME280;17930;48.592;8.868;2023-12-04T01:32:34;96845.44;;;-8.67;100.00
6829;BME280;17930;48.592;8.868;2023-12-04T01:35:03;96839.63;;;-8.68;100.00
6829;BME280;17930;48.592;8.868;2023-12-04T01:37:30;96837.41;;;-8.71;100.00
6829;BME280;17930;48.592;8.868;2023-12-04T01:39:57;96840.28;;;-8.58;100.00
6829;BME280;17930;48.592;8.868;2023-12-04T01:42:24;96839.72;;;-8.44;100.00
6829;BME280;17930;48.592;8.868;2023-12-04T01:44:51;96848.25;;;-8.29;100.00
6829;BME280;17930;48.592;8.868;2023-12-04T01:47:17;96847.16;;;-8.27;100.00
6829;BME280;17930;48.592;8.868;2023-12-04T01:49:45;96840.41;;;-8.11;100.00
6829;BME280;17930;48.592;8.868;2023-12-04T01:52:13;96822.56;;;-7.93;100.00
6829;BME280;17930;48.592;8.868;2023-12-04T01:54:40;96823.63;;;-8.12;100.00
6829;BME280;17930;48.592;8.868;2023-12-04T01:57:07;96819.25;;;-8.17;100.00
6829;BME280;17930;48.592;8.868;2023-12-04T01:59:34;96815.75;;;-7.85;100.00
6829;BME280;17930;48.592;8.868;2023-12-04T02:02:01;96811.16;;;-7.58;100.00
6829;BME280;17930;48.592;8.868;2023-12-04T02:04:31;96807.84;;;-7.42;100.00
6829;BME280;17930;48.592;8.868;2023-12-04T02:06:57;96812.91;;;-7.42;100.00
6829;BME280;17930;48.592;8.868;2023-12-04T02:09:26;96820.66;;;-7.44;100.00
6829;BME280;17930;48.592;8.868;2023-12-04T02:11:53;96821.78;;;-7.62;100.00
6829;BME280;17930;48.592;8.868;2023-12-04T02:14:19;96817.00;;;-8.05;100.00
6829;BME280;17930;48.592;8.868;2023-12-04T02:16:47;96816.69;;;-8.25;100.00
6829;BME280;17930;48.592;8.868;2023-12-04T02:19:14;96812.59;;;-8.03;100.00
6829;BME280;17930;48.592;8.868;2023-12-04T02:21:41;96809.25;;;-7.48;100.00
6829;BME280;17930;48.592;8.868;2023-12-04T02:24:09;96807.50;;;-7.39;100.00
6829;BME280;17930;48.592;8.868;2023-12-04T02:26:47;96800.88;;;-7.40;100.00
6829;BME280;17930;48.592;8.868;2023-12-04T02:29:16;96796.13;;;-7.43;100.00
6829;BME280;17930;48.592;8.868;2023-12-04T02:31:46;96796.94;;;-7.98;100.00
6829;BME280;17930;48.592;8.868;2023-12-04T02:34:15;96799.94;;;-8.26;100.00
6829;BME280;17930;48.592;8.868;2023-12-04T02:36:43;96793.56;;;-8.46;100.00
6829;BME280;17930;48.592;8.868;2023-12-04T02:39:11;96796.09;;;-8.54;100.00
6829;BME280;17930;48.592;8.868;2023-12-04T02:41:38;96789.47;;;-8.55;100.00
6829;BME280;17930;48.592;8.868;2023-12-04T02:44:05;96778.25;;;-8.53;100.00
6829;BME280;17930;48.592;8.868;2023-12-04T02:46:32;96770.34;;;-8.58;100.00
6829;BME280;17930;48.592;8.868;2023-12-04T02:48:58;96773.97;;;-8.68;100.00
6829;BME280;17930;48.592;8.868;2023-12-04T02:51:25;96761.63;;;-8.71;100.00
6829;BME280;17930;48.592;8.868;2023-12-04T02:53:52;96755.94;;;-8.73;100.00
6829;BME280;17930;48.592;8.868;2023-12-04T02:56:20;96752.78;;;-8.75;100.00
6829;BME280;17930;48.592;8.868;2023-12-04T02:58:47;96758.94;;;-8.77;100.00
6829;BME280;17930;48.592;8.868;2023-12-04T03:01:14;96747.91;;;-8.61;100.00
6829;BME280;17930;48.592;8.868;2023-12-04T03:03:40;96747.75;;;-8.59;100.00
6829;BME280;17930;48.592;8.868;2023-12-04T03:06:07;96748.41;;;-8.49;100.00
6829;BME280;17930;48.592;8.868;2023-12-04T03:08:34;96739.91;;;-8.48;100.00
6829;BME280;17930;48.592;8.868;2023-12-04T03:11:01;96737.81;;;-8.68;100.00
6829;BME280;17930;48.592;8.868;2023-12-04T03:13:29;96729.75;;;-8.80;100.00
6829;BME280;17930;48.592;8.868;2023-12-04T03:15:56;96722.34;;;-8.65;100.00
6829;BME280;17930;48.592;8.868;2023-12-04T03:18:22;96714.16;;;-8.28;100.00
6829;BME280;17930;48.592;8.868;2023-12-04T03:20:51;96699.22;;;-7.60;100.00
6829;BME280;17930;48.592;8.868;2023-12-04T03:23:17;96697.47;;;-7.51;100.00
6829;BME280;17930;48.592;8.868;2023-12-04T03:25:44;96691.53;;;-7.74;100.00
6829;BME280;17930;48.592;8.868;2023-12-04T03:28:11;96688.00;;;-7.73;100.00
6829;BME280;17930;48.592;8.868;2023-12-04T03:30:40;96691.97;;;-7.78;100.00
6829;BME280;17930;48.592;8.868;2023-12-04T03:33:08;96695.97;;;-7.84;100.00
6829;BME280;17930;48.592;8.868;2023-12-04T03:35:35;96696.56;;;-7.90;100.00
6829;BME280;17930;48.592;8.868;2023-12-04T03:38:02;96697.56;;;-7.99;100.00
6829;BME280;17930;48.592;8.868;2023-12-04T03:40:28;96694.06;;;-8.06;100.00
6829;BME280;17930;48.592;8.868;2023-12-04T03:42:55;96688.94;;;-7.66;100.00
6829;BME280;17930;48.592;8.868;2023-12-04T03:45:21;96695.72;;;-7.59;100.00
6829;BME280;17930;48.592;8.868;2023-12-04T03:47:48;96687.06;;;-7.64;100.00
6829;BME280;17930;48.592;8.868;2023-12-04T03:50:16;96678.00;;;-7.43;100.00
6829;BME280;17930;48.592;8.868;2023-12-04T03:52:43;96679.19;;;-7.31;100.00
6829;BME280;17930;48.592;8.868;2023-12-04T03:55:09;96682.28;;;-7.51;100.00
6829;BME280;17930;48.592;8.868;2023-12-04T03:57:36;96688.94;;;-7.66;100.00
6829;BME280;17930;48.592;8.868;2023-12-04T04:00:03;96679.34;;;-7.78;100.00
6829;BME280;17930;48.592;8.868;2023-12-04T04:02:30;96688.06;;;-7.81;100.00
6829;BME280;17930;48.592;8.868;2023-12-04T04:04:58;96684.81;;;-7.59;100.00
6829;BME280;17930;48.592;8.868;2023-12-04T04:07:25;96684.41;;;-7.24;100.00
6829;BME280;17930;48.592;8.868;2023-12-04T04:09:52;96686.56;;;-7.13;100.00
6829;BME280;17930;48.592;8.868;2023-12-04T04:12:18;96674.81;;;-7.07;100.00
6829;BME280;17930;48.592;8.868;2023-12-04T04:14:45;96679.00;;;-7.21;100.00
6829;BME280;17930;48.592;8.868;2023-12-04T04:17:12;96680.19;;;-7.40;100.00
6829;BME280;17930;48.592;8.868;2023-12-04T04:19:38;96669.81;;;-7.14;100.00
6829;BME280;17930;48.592;8.868;2023-12-04T04:22:06;96674.97;;;-7.08;100.00
6829;BME280;17930;48.592;8.868;2023-12-04T04:24:33;96668.50;;;-6.80;100.00
6829;BME280;17930;48.592;8.868;2023-12-04T04:27:00;96679.72;;;-6.75;100.00
6829;BME280;17930;48.592;8.868;2023-12-04T04:29:27;96673.81;;;-6.67;100.00
6829;BME280;17930;48.592;8.868;2023-12-04T04:31:53;96668.63;;;-7.04;100.00
6829;BME280;17930;48.592;8.868;2023-12-04T04:34:21;96667.28;;;-6.92;100.00
6829;BME280;17930;48.592;8.868;2023-12-04T04:36:48;96665.13;;;-6.73;100.00
6829;BME280;17930;48.592;8.868;2023-12-04T04:39:16;96663.47;;;-6.58;100.00
6829;BME280;17930;48.592;8.868;2023-12-04T04:41:43;96648.81;;;-6.48;100.00
6829;BME280;17930;48.592;8.868;2023-12-04T04:44:10;96648.47;;;-6.45;100.00
6829;BME280;17930;48.592;8.868;2023-12-04T04:46:37;96640.78;;;-6.37;100.00
6829;BME280;17930;48.592;8.868;2023-12-04T04:49:04;96637.72;;;-6.33;100.00
6829;BME280;17930;48.592;8.868;2023-12-04T04:51:33;96627.84;;;-6.42;100.00
6829;BME280;17930;48.592;8.868;2023-12-04T04:54:00;96625.16;;;-6.63;100.00
6829;BME280;17930;48.592;8.868;2023-12-04T04:56:29;96624.59;;;-6.73;100.00
6829;BME280;17930;48.592;8.868;2023-12-04T04:58:56;96624.59;;;-6.73;100.00
6829;BME280;17930;48.592;8.868;2023-12-04T05:01:23;96622.66;;;-6.71;100.00
6829;BME280;17930;48.592;8.868;2023-12-04T05:03:49;96616.66;;;-6.70;100.00
6829;BME280;17930;48.592;8.868;2023-12-04T05:06:16;96611.97;;;-6.81;100.00
6829;BME280;17930;48.592;8.868;2023-12-04T05:08:43;96608.50;;;-6.80;100.00
6829;BME280;17930;48.592;8.868;2023-12-04T05:11:10;96600.16;;;-6.88;100.00
6829;BME280;17930;48.592;8.868;2023-12-04T05:13:38;96611.16;;;-7.04;100.00
6829;BME280;17930;48.592;8.868;2023-12-04T05:16:06;96596.72;;;-7.17;100.00
6829;BME280;17930;48.592;8.868;2023-12-04T05:18:32;96590.56;;;-7.23;100.00
6829;BME280;17930;48.592;8.868;2023-12-04T05:20:59;96589.75;;;-7.23;100.00
6829;BME280;17930;48.592;8.868;2023-12-04T05:23:26;96586.31;;;-7.30;100.00
6829;BME280;17930;48.592;8.868;2023-12-04T05:25:52;96592.69;;;-7.34;100.00
6829;BME280;17930;48.592;8.868;2023-12-04T05:28:19;96585.09;;;-7.34;100.00
6829;BME280;17930;48.592;8.868;2023-12-04T05:30:49;96589.53;;;-7.36;100.00
6829;BME280;17930;48.592;8.868;2023-12-04T05:33:16;96588.44;;;-6.89;100.00
6829;BME280;17930;48.592;8.868;2023-12-04T05:35:43;96584.75;;;-6.79;100.00
6829;BME280;17930;48.592;8.868;2023-12-04T05:38:10;96591.69;;;-7.25;100.00
6829;BME280;17930;48.592;8.868;2023-12-04T05:40:36;96591.72;;;-7.03;100.00
6829;BME280;17930;48.592;8.868;2023-12-04T05:43:03;96586.81;;;-7.05;100.00
6829;BME280;17930;48.592;8.868;2023-12-04T05:45:30;96592.47;;;-6.95;100.00
6829;BME280;17930;48.592;8.868;2023-12-04T05:47:58;96596.75;;;-6.81;100.00
6829;BME280;17930;48.592;8.868;2023-12-04T05:50:25;96588.91;;;-6.86;100.00
6829;BME280;17930;48.592;8.868;2023-12-04T05:52:52;96588.56;;;-6.83;100.00
6829;BME280;17930;48.592;8.868;2023-12-04T05:55:18;96583.38;;;-6.89;100.00
6829;BME280;17930;48.592;8.868;2023-12-04T05:57:45;96589.59;;;-6.92;100.00
6829;BME280;17930;48.592;8.868;2023-12-04T06:00:13;96593.38;;;-6.88;100.00
6829;BME280;17930;48.592;8.868;2023-12-04T06:02:41;96584.69;;;-6.93;100.00
6829;BME280;17930;48.592;8.868;2023-12-04T06:05:10;96575.84;;;-6.97;100.00
6829;BME280;17930;48.592;8.868;2023-12-04T06:07:37;96573.63;;;-7.22;100.00
6829;BME280;17930;48.592;8.868;2023-12-04T06:10:05;96574.00;;;-7.33;100.00
6829;BME280;17930;48.592;8.868;2023-12-04T06:12:32;96574.16;;;-7.05;100.00
6829;BME280;17930;48.592;8.868;2023-12-04T06:14:59;96569.44;;;-7.08;100.00
6829;BME280;17930;48.592;8.868;2023-12-04T06:17:26;96571.56;;;-6.97;100.00
6829;BME280;17930;48.592;8.868;2023-12-04T06:19:53;96569.56;;;-7.09;100.00
6829;BME280;17930;48.592;8.868;2023-12-04T06:22:21;96560.66;;;-6.97;100.00
6829;BME280;17930;48.592;8.868;2023-12-04T06:24:49;96551.41;;;-6.68;100.00
6829;BME280;17930;48.592;8.868;2023-12-04T06:27:17;96553.59;;;-6.65;100.00
6829;BME280;17930;48.592;8.868;2023-12-04T06:29:46;96548.59;;;-6.73;100.00
6829;BME280;17930;48.592;8.868;2023-12-04T06:32:13;96547.09;;;-6.45;100.00
6829;BME280;17930;48.592;8.868;2023-12-04T06:34:40;96541.50;;;-6.26;100.00
6829;BME280;17930;48.592;8.868;2023-12-04T06:37:09;96538.97;;;-6.41;100.00
6829;BME280;17930;48.592;8.868;2023-12-04T06:39:38;96522.09;;;-6.34;100.00
6829;BME280;17930;48.592;8.868;2023-12-04T06:42:06;96527.09;;;-6.11;100.00
6829;BME280;17930;48.592;8.868;2023-12-04T06:44:34;96513.94;;;-6.01;100.00
6829;BME280;17930;48.592;8.868;2023-12-04T06:47:02;96510.28;;;-5.98;100.00
6829;BME280;17930;48.592;8.868;2023-12-04T06:49:31;96511.41;;;-5.86;100.00
6829;BME280;17930;48.592;8.868;2023-12-04T06:51:58;96504.59;;;-5.86;100.00
6829;BME280;17930;48.592;8.868;2023-12-04T06:54:25;96502.25;;;-6.02;100.00
6829;BME280;17930;48.592;8.868;2023-12-04T06:56:53;96502.34;;;-6.09;100.00
6829;BME280;17930;48.592;8.868;2023-12-04T06:59:20;96515.91;;;-6.17;100.00
6829;BME280;17930;48.592;8.868;2023-12-04T07:01:47;96512.56;;;-6.17;100.00
6829;BME280;17930;48.592;8.868;2023-12-04T07:04:15;96506.78;;;-6.26;100.00
6829;BME280;17930;48.592;8.868;2023-12-04T07:06:46;96504.88;;;-6.09;100.00
6829;BME280;17930;48.592;8.868;2023-12-04T07:09:13;96506.53;;;-6.16;100.00
6829;BME280;17930;48.592;8.868;2023-12-04T07:11:40;96506.69;;;-6.18;100.00
6829;BME280;17930;48.592;8.868;2023-12-04T07:14:11;96504.78;;;-6.02;100.00
6829;BME280;17930;48.592;8.868;2023-12-04T07:16:40;96508.28;;;-6.03;100.00
6829;BME280;17930;48.592;8.868;2023-12-04T07:19:08;96499.53;;;-6.14;100.00
6829;BME280;17930;48.592;8.868;2023-12-04T07:21:35;96499.34;;;-6.27;100.00
6829;BME280;17930;48.592;8.868;2023-12-04T07:24:02;96497.06;;;-5.94;100.00
6829;BME280;17930;48.592;8.868;2023-12-04T07:26:30;96489.28;;;-6.07;100.00
6829;BME280;17930;48.592;8.868;2023-12-04T07:28:57;96504.41;;;-6.13;100.00
6829;BME280;17930;48.592;8.868;2023-12-04T07:31:25;96498.56;;;-6.13;100.00
6829;BME280;17930;48.592;8.868;2023-12-04T07:33:52;96496.13;;;-5.93;100.00
6829;BME280;17930;48.592;8.868;2023-12-04T07:36:19;96497.06;;;-5.94;100.00
6829;BME280;17930;48.592;8.868;2023-12-04T07:38:46;96495.16;;;-5.92;100.00
6829;BME280;17930;48.592;8.868;2023-12-04T07:41:13;96494.16;;;-5.91;100.00
6829;BME280;17930;48.592;8.868;2023-12-04T07:43:41;96493.75;;;-5.94;100.00
6829;BME280;17930;48.592;8.868;2023-12-04T07:46:09;96502.66;;;-5.84;100.00
6829;BME280;17930;48.592;8.868;2023-12-04T07:48:37;96500.19;;;-5.77;100.00
6829;BME280;17930;48.592;8.868;2023-12-04T07:51:05;96494.56;;;-5.73;100.00
6829;BME280;17930;48.592;8.868;2023-12-04T07:53:32;96514.50;;;-5.70;100.00
6829;BME280;17930;48.592;8.868;2023-12-04T07:56:00;96516.59;;;-5.59;100.00
6829;BME280;17930;48.592;8.868;2023-12-04T07:58:28;96512.16;;;-5.36;100.00
6829;BME280;17930;48.592;8.868;2023-12-04T08:00:55;96504.75;;;-5.31;100.00
6829;BME280;17930;48.592;8.868;2023-12-04T08:03:21;96507.81;;;-5.42;100.00
6829;BME280;17930;48.592;8.868;2023-12-04T08:05:53;96499.56;;;-5.44;100.00
6829;BME280;17930;48.592;8.868;2023-12-04T08:08:19;96496.28;;;-5.59;100.00
6829;BME280;17930;48.592;8.868;2023-12-04T08:10:47;96482.16;;;-5.26;100.00
6829;BME280;17930;48.592;8.868;2023-12-04T08:13:13;96473.72;;;-5.12;100.00
6829;BME280;17930;48.592;8.868;2023-12-04T08:15:40;96481.06;;;-5.17;100.00
6829;BME280;17930;48.592;8.868;2023-12-04T08:18:07;96482.34;;;-5.07;100.00
6829;BME280;17930;48.592;8.868;2023-12-04T08:20:34;96475.38;;;-4.99;100.00
6829;BME280;17930;48.592;8.868;2023-12-04T08:23:05;96471.38;;;-5.08;100.00
6829;BME280;17930;48.592;8.868;2023-12-04T08:25:32;96483.31;;;-4.87;100.00
6829;BME280;17930;48.592;8.868;2023-12-04T08:27:59;96472.34;;;-5.09;100.00
6829;BME280;17930;48.592;8.868;2023-12-04T08:30:26;96470.78;;;-5.09;100.00
6829;BME280;17930;48.592;8.868;2023-12-04T08:32:53;96468.47;;;-4.84;100.00
6829;BME280;17930;48.592;8.868;2023-12-04T08:35:20;96474.59;;;-4.72;100.00
6829;BME280;17930;48.592;8.868;2023-12-04T08:37:47;96473.28;;;-4.68;100.00
6829;BME280;17930;48.592;8.868;2023-12-04T08:40:15;96467.13;;;-4.53;100.00
6829;BME280;17930;48.592;8.868;2023-12-04T08:42:43;96467.56;;;-4.49;100.00
6829;BME280;17930;48.592;8.868;2023-12-04T08:45:09;96458.28;;;-4.29;100.00
6829;BME280;17930;48.592;8.868;2023-12-04T08:47:36;96458.63;;;-4.32;100.00
6829;BME280;17930;48.592;8.868;2023-12-04T08:50:04;96465.81;;;-4.42;100.00
6829;BME280;17930;48.592;8.868;2023-12-04T08:52:31;96457.47;;;-4.36;100.00
6829;BME280;17930;48.592;8.868;2023-12-04T08:54:59;96452.00;;;-4.33;100.00
6829;BME280;17930;48.592;8.868;2023-12-04T08:57:27;96450.97;;;-4.05;100.00
6829;BME280;17930;48.592;8.868;2023-12-04T08:59:54;96450.84;;;-4.24;100.00
6829;BME280;17930;48.592;8.868;2023-12-04T09:02:21;96453.84;;;-4.14;100.00
6829;BME280;17930;48.592;8.868;2023-12-04T09:04:47;96459.41;;;-3.98;100.00
6829;BME280;17930;48.592;8.868;2023-12-04T09:07:14;96460.47;;;-3.73;100.00
6829;BME280;17930;48.592;8.868;2023-12-04T09:09:41;96456.53;;;-3.82;100.00
6829;BME280;17930;48.592;8.868;2023-12-04T09:12:09;96476.75;;;-3.68;100.00
6829;BME280;17930;48.592;8.868;2023-12-04T09:14:37;96460.91;;;-3.70;100.00
6829;BME280;17930;48.592;8.868;2023-12-04T09:17:04;96467.13;;;-3.79;100.00
6829;BME280;17930;48.592;8.868;2023-12-04T09:19:31;96458.38;;;-3.57;100.00
6829;BME280;17930;48.592;8.868;2023-12-04T09:21:58;96466.88;;;-3.97;100.00
6829;BME280;17930;48.592;8.868;2023-12-04T09:24:25;96479.69;;;-3.71;100.00
6829;BME280;17930;48.592;8.868;2023-12-04T09:26:52;96465.09;;;-3.43;100.00
6829;BME280;17930;48.592;8.868;2023-12-04T09:29:20;96465.03;;;-3.62;100.00
6829;BME280;17930;48.592;8.868;2023-12-04T09:31:51;96497.78;;;-3.53;100.00
6829;BME280;17930;48.592;8.868;2023-12-04T09:34:18;96464.06;;;-3.61;100.00
6829;BME280;17930;48.592;8.868;2023-12-04T09:36:45;96501.50;;;-3.49;100.00
6829;BME280;17930;48.592;8.868;2023-12-04T09:39:12;96491.19;;;-3.28;100.00
6829;BME280;17930;48.592;8.868;2023-12-04T09:41:42;96481.00;;;-3.15;100.00
6829;BME280;17930;48.592;8.868;2023-12-04T09:44:09;96475.56;;;-2.87;100.00
6829;BME280;17930;48.592;8.868;2023-12-04T09:46:36;96488.09;;;-2.98;100.00
6829;BME280;17930;48.592;8.868;2023-12-04T09:49:04;96480.25;;;-2.64;100.00
6829;BME280;17930;48.592;8.868;2023-12-04T09:51:32;96480.84;;;-2.69;100.00
6829;BME280;17930;48.592;8.868;2023-12-04T09:54:02;96473.59;;;-2.98;100.00
6829;BME280;17930;48.592;8.868;2023-12-04T09:56:29;96485.34;;;-2.45;100.00
6829;BME280;17930;48.592;8.868;2023-12-04T09:58:58;96498.69;;;-2.43;100.00
6829;BME280;17930;48.592;8.868;2023-12-04T10:01:26;96503.19;;;-2.19;100.00
6829;BME280;17930;48.592;8.868;2023-12-04T10:03:52;96475.34;;;-2.53;100.00
6829;BME280;17930;48.592;8.868;2023-12-04T10:06:21;96473.59;;;-2.59;100.00
6829;BME280;17930;48.592;8.868;2023-12-04T10:08:49;96466.13;;;-2.80;100.00
6829;BME280;17930;48.592;8.868;2023-12-04T10:11:17;96451.03;;;-2.62;100.00
6829;BME280;17930;48.592;8.868;2023-12-04T10:13:43;96448.47;;;-2.49;100.00
6829;BME280;17930;48.592;8.868;2023-12-04T10:16:10;96438.19;;;-2.10;100.00
6829;BME280;17930;48.592;8.868;2023-12-04T10:18:37;96421.66;;;-2.02;100.00
6829;BME280;17930;48.592;8.868;2023-12-04T10:21:04;96413.22;;;-1.65;100.00
6829;BME280;17930;48.592;8.868;2023-12-04T10:23:39;96417.22;;;-1.45;100.00
6829;BME280;17930;48.592;8.868;2023-12-04T10:26:06;96409.06;;;-1.29;100.00
6829;BME280;17930;48.592;8.868;2023-12-04T10:28:34;96401.19;;;-1.27;100.00
6829;BME280;17930;48.592;8.868;2023-12-04T10:31:01;96396.41;;;-1.17;100.00
6829;BME280;17930;48.592;8.868;2023-12-04T10:33:29;96402.63;;;-1.31;100.00
6829;BME280;17930;48.592;8.868;2023-12-04T10:35:56;96385.78;;;-1.14;100.00
6829;BME280;17930;48.592;8.868;2023-12-04T10:38:23;96360.72;;;-0.82;100.00
6829;BME280;17930;48.592;8.868;2023-12-04T10:40:53;96352.59;;;-0.61;100.00
6829;BME280;17930;48.592;8.868;2023-12-04T10:43:21;96336.50;;;-0.44;100.00
6829;BME280;17930;48.592;8.868;2023-12-04T10:45:49;96326.72;;;-0.17;100.00
6829;BME280;17930;48.592;8.868;2023-12-04T10:48:18;96339.09;;;-0.50;100.00
6829;BME280;17930;48.592;8.868;2023-12-04T10:50:46;96335.41;;;-0.72;100.00
6829;BME280;17930;48.592;8.868;2023-12-04T10:53:15;96338.41;;;-0.57;100.00
6829;BME280;17930;48.592;8.868;2023-12-04T10:55:43;96350.47;;;-1.06;100.00
6829;BME280;17930;48.592;8.868;2023-12-04T10:58:13;96351.69;;;-1.08;100.00
6829;BME280;17930;48.592;8.868;2023-12-04T11:00:43;96347.66;;;-1.22;100.00
6829;BME280;17930;48.592;8.868;2023-12-04T11:03:13;96340.88;;;-1.10;100.00
6829;BME280;17930;48.592;8.868;2023-12-04T11:05:48;96314.88;;;-1.07;100.00
6829;BME280;17930;48.592;8.868;2023-12-04T11:08:18;96325.53;;;-0.68;100.00
6829;BME280;17930;48.592;8.868;2023-12-04T11:10:50;96314.34;;;-0.92;100.00
6829;BME280;17930;48.592;8.868;2023-12-04T11:13:27;96304.63;;;-1.07;100.00
6829;BME280;17930;48.592;8.868;2023-12-04T11:15:56;96288.06;;;-0.99;100.00
6829;BME280;17930;48.592;8.868;2023-12-04T11:18:27;96305.06;;;-1.10;100.00
6829;BME280;17930;48.592;8.868;2023-12-04T11:20:58;96296.44;;;-0.74;100.00
6829;BME280;17930;48.592;8.868;2023-12-04T11:23:26;96276.09;;;-0.51;100.00
6829;BME280;17930;48.592;8.868;2023-12-04T11:25:53;96282.91;;;-0.27;100.00
6829;BME280;17930;48.592;8.868;2023-12-04T11:28:22;96275.66;;;-0.48;100.00
6829;BME280;17930;48.592;8.868;2023-12-04T11:30:50;96260.44;;;-0.25;100.00
6829;BME280;17930;48.592;8.868;2023-12-04T11:33:17;96261.44;;;-0.44;100.00
6829;BME280;17930;48.592;8.868;2023-12-04T11:35:44;96250.03;;;-0.77;100.00
6829;BME280;17930;48.592;8.868;2023-12-04T11:38:13;96239.16;;;-0.91;100.00
6829;BME280;17930;48.592;8.868;2023-12-04T11:40:41;96228.09;;;-0.85;100.00
6829;BME280;17930;48.592;8.868;2023-12-04T11:43:23;96228.28;;;-1.04;100.00
6829;BME280;17930;48.592;8.868;2023-12-04T11:45:51;96224.44;;;-0.95;100.00
6829;BME280;17930;48.592;8.868;2023-12-04T11:48:22;96219.19;;;-0.82;100.00
6829;BME280;17930;48.592;8.868;2023-12-04T11:50:49;96214.16;;;-0.89;100.00
6829;BME280;17930;48.592;8.868;2023-12-04T11:53:16;96239.78;;;-1.13;100.00
6829;BME280;17930;48.592;8.868;2023-12-04T11:55:43;96232.19;;;-1.02;100.00
6829;BME280;17930;48.592;8.868;2023-12-04T11:58:10;96222.97;;;-0.85;100.00
6829;BME280;17930;48.592;8.868;2023-12-04T12:00:41;96220.31;;;-0.31;100.00
6829;BME280;17930;48.592;8.868;2023-12-04T12:03:09;96211.31;;;0.18;100.00
6829;BME280;17930;48.592;8.868;2023-12-04T12:05:38;96212.81;;;0.71;100.00
6829;BME280;17930;48.592;8.868;2023-12-04T12:08:09;96208.75;;;1.09;100.00
6829;BME280;17930;48.592;8.868;2023-12-04T12:10:37;96194.56;;;1.18;100.00
6829;BME280;17930;48.592;8.868;2023-12-04T12:13:04;96185.34;;;0.95;100.00
6829;BME280;17930;48.592;8.868;2023-12-04T12:15:32;96187.25;;;0.88;100.00
6829;BME280;17930;48.592;8.868;2023-12-04T12:18:00;96193.97;;;0.66;100.00
6829;BME280;17930;48.592;8.868;2023-12-04T12:20:27;96191.41;;;0.43;100.00
6829;BME280;17930;48.592;8.868;2023-12-04T12:22:53;96195.41;;;0.39;100.00
6829;BME280;17930;48.592;8.868;2023-12-04T12:25:20;96187.47;;;0.29;100.00
6829;BME280;17930;48.592;8.868;2023-12-04T12:27:48;96182.09;;;0.08;100.00
6829;BME280;17930;48.592;8.868;2023-12-04T12:30:15;96178.09;;;0.00;100.00
6829;BME280;17930;48.592;8.868;2023-12-04T12:32:41;96168.75;;;0.06;100.00
6829;BME280;17930;48.592;8.868;2023-12-04T12:35:10;96173.06;;;-0.06;100.00
6829;BME280;17930;48.592;8.868;2023-12-04T12:37:38;96162.38;;;-0.03;100.00
6829;BME280;17930;48.592;8.868;2023-12-04T12:40:06;96152.81;;;0.15;100.00
6829;BME280;17930;48.592;8.868;2023-12-04T12:42:36;96144.56;;;0.36;100.00
6829;BME280;17930;48.592;8.868;2023-12-04T12:45:05;96141.34;;;0.06;100.00
6829;BME280;17930;48.592;8.868;2023-12-04T12:47:31;96124.72;;;-0.02;100.00
6829;BME280;17930;48.592;8.868;2023-12-04T12:50:00;96145.09;;;-0.07;100.00
6829;BME280;17930;48.592;8.868;2023-12-04T12:52:29;96133.63;;;-0.16;100.00
6829;BME280;17930;48.592;8.868;2023-12-04T12:54:55;96146.91;;;0.03;100.00
6829;BME280;17930;48.592;8.868;2023-12-04T12:57:22;96136.22;;;0.06;100.00
6829;BME280;17930;48.592;8.868;2023-12-04T12:59:50;96131.75;;;0.13;100.00
6829;BME280;17930;48.592;8.868;2023-12-04T13:02:16;96132.66;;;0.07;100.00